Time;durP1;ratioP1;P1;durP2;ratioP2;P2;SDS_P1;SDS_P2;PMS_P1;PMS_P2;Temp;Humidity;BMP_temperature;BMP_pressure;BME280_temperature;BME280_humidity;BME280_pressure;Samples;Min_cycle;Max_cycle;Signal;HPM_P1;HPM_P2
2022/04/17 00:00:52;;;;;;;3.67;2.97;;;8.40;45.70;;;8.95;39.85;98836.59;5043784;28;20055;-44
2022/04/17 00:03:23;;;;;;;4.00;2.80;;;8.40;45.50;;;8.92;39.81;98826.25;5043533;28;20052;-43
2022/04/17 00:05:51;;;;;;;4.63;3.57;;;8.30;45.50;;;8.89;39.98;98822.97;5043201;28;20052;-44
2022/04/17 00:08:19;;;;;;;3.73;2.70;;;8.40;45.20;;;8.91;39.52;98826.34;5043541;28;20049;-44
2022/04/17 00:10:47;;;;;;;3.77;3.03;;;8.40;44.80;;;8.86;39.72;98822.25;5043972;28;20052;-44
2022/04/17 00:13:15;;;;;;;4.63;3.57;;;8.40;44.60;;;8.74;39.82;98820.56;5043314;28;20042;-45
2022/04/17 00:15:43;;;;;;;2.83;2.53;;;8.50;44.10;;;8.74;39.76;98825.03;5043368;28;20068;-43
2022/04/17 00:18:11;;;;;;;3.90;3.33;;;8.50;43.70;;;8.73;39.74;98826.84;5042516;28;20051;-46
2022/04/17 00:20:39;;;;;;;7.00;3.23;;;8.40;44.10;;;8.76;39.67;98823.09;5044146;28;20063;-44
2022/04/17 00:23:07;;;;;;;4.10;3.40;;;8.40;44.40;;;8.78;39.69;98818.50;5043007;28;20046;-44
2022/04/17 00:25:35;;;;;;;3.33;2.67;;;8.30;44.60;;;8.79;39.91;98817.56;5042656;28;20049;-47
2022/04/17 00:28:04;;;;;;;3.83;2.87;;;8.30;45.00;;;8.75;40.09;98810.81;5043162;28;20051;-45
2022/04/17 00:30:32;;;;;;;3.83;2.73;;;8.30;45.00;;;8.74;39.92;98811.75;5043185;28;20340;-44
2022/04/17 00:33:00;;;;;;;5.57;3.90;;;8.20;45.40;;;8.69;40.10;98811.28;5043086;28;20336;-43
2022/04/17 00:35:28;;;;;;;3.83;2.80;;;8.10;45.80;;;8.64;40.14;98808.97;5042765;28;20047;-44
2022/04/17 00:37:56;;;;;;;5.53;3.17;;;8.00;46.10;;;8.61;40.36;98809.25;5042755;28;20367;-45
2022/04/17 00:40:24;;;;;;;5.10;2.70;;;7.90;46.40;;;8.52;40.51;98797.50;5042956;28;20045;-43
2022/04/17 00:42:53;;;;;;;4.77;3.47;;;7.90;46.70;;;8.46;40.62;98790.03;5042966;28;20041;-45
2022/04/17 00:45:21;;;;;;;4.77;3.10;;;7.80;46.50;;;8.42;40.59;98794.75;5043030;28;20240;-45
2022/04/17 00:47:48;;;;;;;4.50;2.83;;;7.80;46.40;;;8.37;40.85;98786.25;5041333;28;20049;-44
2022/04/17 00:50:17;;;;;;;6.17;3.50;;;7.70;46.60;;;8.33;40.55;98783.97;5042774;28;20049;-44
2022/04/17 00:52:45;;;;;;;5.77;3.17;;;7.70;46.80;;;8.27;40.60;98783.47;5043449;28;20344;-43
2022/04/17 00:55:16;;;;;;;4.27;3.43;;;7.60;46.90;;;8.24;40.76;98781.06;5042782;28;20075;-45
2022/04/17 00:57:44;;;;;;;6.57;4.27;;;7.60;47.10;;;8.19;40.77;98785.03;5041331;28;20049;-45
2022/04/17 01:00:13;;;;;;;5.87;3.50;;;7.50;47.00;;;8.16;40.68;98785.25;5041425;28;20059;-44
2022/04/17 01:02:44;;;;;;;4.47;3.27;;;7.50;47.00;;;8.15;40.67;98783.59;5042499;28;20048;-42
2022/04/17 01:05:12;;;;;;;4.87;2.87;;;7.50;47.20;;;8.10;40.74;98773.31;5042481;28;20084;-45
2022/04/17 01:07:40;;;;;;;3.63;3.10;;;7.40;46.90;;;8.07;41.16;98784.16;5041928;28;20329;-43
2022/04/17 01:10:09;;;;;;;3.73;3.00;;;7.40;47.00;;;8.03;40.92;98785.38;5042553;28;20045;-44
2022/04/17 01:12:37;;;;;;;4.23;3.37;;;7.40;47.20;;;8.01;41.11;98782.00;5042419;28;20061;-44
2022/04/17 01:15:05;;;;;;;4.77;3.43;;;7.40;47.20;;;7.97;41.22;98783.16;5042655;28;20056;-44
2022/04/17 01:17:33;;;;;;;5.40;3.83;;;7.30;47.30;;;7.94;41.04;98780.75;5041469;28;20049;-46
2022/04/17 01:20:02;;;;;;;3.97;3.00;;;7.30;47.50;;;7.89;41.00;98779.31;5042462;28;20224;-46
2022/04/17 01:22:31;;;;;;;4.93;2.90;;;7.20;47.50;;;7.86;40.78;98774.22;5042356;28;20055;-44
2022/04/17 01:27:45;;;;;;;4.50;2.93;;;7.20;47.50;;;7.83;41.03;98766.53;5041770;28;20037;-44
2022/04/17 01:30:13;;;;;;;6.23;4.20;;;7.20;47.50;;;7.82;40.97;98763.97;5043096;28;20049;-45
2022/04/17 01:32:41;;;;;;;3.87;2.97;;;7.20;47.20;;;7.80;41.29;98763.25;5042600;28;20090;-44
2022/04/17 01:35:08;;;;;;;5.00;2.97;;;7.20;47.30;;;7.79;41.42;98773.03;5041994;28;20042;-45
2022/04/17 01:37:36;;;;;;;3.90;3.13;;;7.20;47.20;;;7.77;40.93;98761.66;5041732;28;20056;-44
2022/04/17 01:40:05;;;;;;;3.77;3.00;;;7.20;47.30;;;7.76;41.43;98759.16;5042166;28;20046;-45
2022/04/17 01:42:33;;;;;;;3.67;2.80;;;7.20;47.20;;;7.75;41.37;98755.63;5042133;28;20344;-44
2022/04/17 01:45:01;;;;;;;4.13;3.00;;;7.10;47.30;;;7.71;41.04;98756.81;5042069;28;20049;-43
2022/04/17 01:47:30;;;;;;;6.17;3.27;;;7.00;47.20;;;7.68;41.41;98757.06;5040449;28;20100;-45
2022/04/17 01:49:59;;;;;;;4.07;2.57;;;7.00;47.30;;;7.67;41.49;98750.91;5041778;28;20045;-44
2022/04/17 01:52:27;;;;;;;3.90;3.07;;;7.00;47.20;;;7.66;41.05;98753.69;5042015;28;20244;-43
2022/04/17 01:54:55;;;;;;;4.10;3.07;;;7.10;47.10;;;7.67;41.22;98758.84;5040877;28;20125;-45
2022/04/17 01:57:23;;;;;;;4.57;2.87;;;7.10;47.10;;;7.66;41.43;98754.53;5041408;28;20225;-45
2022/04/17 01:59:51;;;;;;;4.83;2.80;;;7.20;46.90;;;7.65;41.33;98754.66;5041766;28;20052;-43
2022/04/17 02:02:19;;;;;;;3.20;2.47;;;7.10;46.80;;;7.64;41.32;98745.84;5041966;28;20334;-45
2022/04/17 02:04:47;;;;;;;3.57;2.77;;;7.10;46.80;;;7.64;41.13;98745.03;5041854;28;20056;-45
2022/04/17 02:07:14;;;;;;;3.93;2.97;;;7.10;46.90;;;7.61;40.94;98735.47;5041413;28;20051;-43
2022/04/17 02:09:42;;;;;;;5.67;2.63;;;7.00;46.90;;;7.59;40.96;98737.41;5041732;28;20214;-44
2022/04/17 02:12:10;;;;;;;3.50;2.60;;;7.10;46.90;;;7.59;41.07;98734.75;5045046;28;20067;-43
2022/04/17 02:14:38;;;;;;;5.77;3.13;;;7.10;46.70;;;7.57;41.21;98734.03;5045748;28;20052;-45
2022/04/17 02:17:06;;;;;;;4.67;2.70;;;7.10;46.80;;;7.54;41.10;98734.28;5060445;28;20059;-43
2022/04/17 02:19:34;;;;;;;5.33;2.73;;;7.00;46.70;;;7.54;41.66;98733.41;5045372;28;20049;-45
2022/04/17 02:22:02;;;;;;;5.50;3.23;;;7.00;46.90;;;7.54;41.13;98726.31;5046275;28;20057;-44
2022/04/17 02:24:30;;;;;;;6.37;2.87;;;7.00;46.90;;;7.53;41.71;98729.91;5045443;28;20049;-44
2022/04/17 02:26:58;;;;;;;4.87;2.97;;;7.00;47.00;;;7.51;41.43;98729.19;5045134;28;20041;-45
2022/04/17 02:29:25;;;;;;;3.93;2.80;;;7.00;47.10;;;7.40;41.67;98722.03;5044360;28;20339;-44
2022/04/17 02:31:53;;;;;;;3.17;2.60;;;7.00;47.00;;;7.37;41.70;98721.44;5045528;28;20247;-44
2022/04/17 02:34:21;;;;;;;4.70;2.50;;;6.90;47.30;;;7.33;41.38;98712.00;5045268;28;20047;-45
2022/04/17 02:36:49;;;;;;;3.87;2.47;;;6.90;47.10;;;7.33;41.79;98707.56;5044964;28;20053;-46
2022/04/17 02:39:17;;;;;;;5.93;3.07;;;6.90;46.90;;;7.29;42.03;98712.25;5045306;28;20336;-44
2022/04/17 02:41:44;;;;;;;3.43;2.83;;;7.00;47.40;;;7.31;41.94;98709.50;5045344;28;20053;-44
2022/04/17 02:44:12;;;;;;;4.67;2.67;;;7.00;46.60;;;7.32;41.57;98710.34;5045155;28;20049;-46
2022/04/17 02:49:26;;;;;;;5.57;3.07;;;6.90;46.70;;;7.33;41.60;98696.09;5045271;28;20057;-45
2022/04/17 02:51:54;;;;;;;4.70;2.93;;;6.90;46.90;;;7.31;41.56;98696.25;5045148;28;20045;-45
2022/04/17 02:54:22;;;;;;;5.03;2.90;;;6.90;46.80;;;7.33;41.79;98696.97;5044963;28;20052;-44
2022/04/17 02:56:50;;;;;;;3.07;2.73;;;6.90;47.00;;;7.33;42.09;98696.97;5043559;28;20053;-44
2022/04/17 02:59:18;;;;;;;3.80;2.70;;;6.80;47.20;;;7.29;42.26;98706.13;5060098;28;20072;-44
2022/04/17 03:07:18;;;;;;;4.43;2.97;;;6.60;47.90;;;7.16;42.09;98703.53;5044306;28;20331;-45
2022/04/17 03:09:46;;;;;;;3.43;2.60;;;6.60;48.10;;;7.15;41.73;98704.47;5044700;28;20045;-43
2022/04/17 03:12:14;;;;;;;3.83;3.07;;;6.50;48.10;;;7.15;42.12;98709.75;5044609;28;20270;-43
2022/04/17 03:14:42;;;;;;;5.20;3.67;;;6.50;48.50;;;7.14;41.89;98694.00;5043502;28;20344;-45
2022/04/17 03:17:10;;;;;;;6.00;3.53;;;6.50;48.60;;;7.08;41.76;98700.59;5042789;28;20060;-44
2022/04/17 03:19:38;;;;;;;4.17;3.30;;;6.40;48.70;;;7.06;42.61;98697.22;5044474;28;20136;-46
2022/04/17 03:22:06;;;;;;;3.87;3.10;;;6.40;48.80;;;7.02;42.27;98699.25;5044716;28;20050;-44
2022/04/17 03:24:33;;;;;;;4.33;2.80;;;6.40;48.90;;;7.01;42.54;98699.34;5043319;28;20055;-43
2022/04/17 03:27:01;;;;;;;4.93;3.10;;;6.40;49.10;;;6.98;42.95;98707.50;5043856;28;20054;-43
2022/04/17 03:29:29;;;;;;;4.37;3.03;;;6.30;49.30;;;6.95;42.19;98697.16;5044279;28;20049;-44
2022/04/17 03:31:57;;;;;;;5.63;3.03;;;6.30;49.50;;;6.94;42.29;98703.41;5044091;28;20053;-44
2022/04/17 03:34:25;;;;;;;4.47;2.90;;;6.30;49.40;;;6.89;42.40;98709.06;5043912;28;20374;-43
2022/04/17 03:36:53;;;;;;;5.67;3.37;;;6.30;49.60;;;6.86;42.35;98703.97;5044050;28;20049;-43
2022/04/17 03:39:20;;;;;;;6.60;3.90;;;6.20;49.70;;;6.83;43.10;98706.84;5043958;28;20053;-43
2022/04/17 03:41:48;;;;;;;4.40;3.10;;;6.10;49.80;;;6.79;43.25;98708.03;5044160;28;20387;-44
2022/04/17 03:44:16;;;;;;;5.77;3.17;;;6.10;49.90;;;6.75;42.86;98704.75;5044068;28;20045;-43
2022/04/17 03:46:44;;;;;;;5.20;3.43;;;6.10;50.00;;;6.73;43.33;98701.38;5043029;28;20058;-45
2022/04/17 03:49:12;;;;;;;4.27;3.87;;;6.10;50.20;;;6.70;42.89;98698.94;5043793;28;20045;-43
2022/04/17 03:51:40;;;;;;;4.87;3.20;;;6.00;50.30;;;6.65;43.55;98691.34;5059217;28;20343;-44
2022/04/17 03:54:07;;;;;;;4.90;3.27;;;6.00;50.50;;;6.60;43.03;98690.81;5042834;28;20046;-43
2022/04/17 03:56:35;;;;;;;4.03;3.33;;;6.00;50.60;;;6.57;43.03;98692.84;5043617;28;20056;-43
2022/04/17 03:59:03;;;;;;;6.43;3.37;;;5.90;50.70;;;6.55;43.69;98694.75;5043911;28;20075;-43
2022/04/17 04:01:31;;;;;;;5.40;3.80;;;5.90;50.70;;;6.54;43.51;98696.56;5044003;28;20053;-44
2022/04/17 04:03:59;;;;;;;7.03;4.23;;;5.90;50.80;;;6.52;43.42;98687.91;5043823;28;20049;-43
2022/04/17 04:06:27;;;;;;;6.60;4.23;;;5.90;50.90;;;6.50;43.44;98685.34;5043242;28;20045;-43
2022/04/17 04:08:55;;;;;;;4.33;3.13;;;5.90;50.90;;;6.48;43.41;98691.72;5043602;28;20227;-45
2022/04/17 04:11:22;;;;;;;8.00;3.70;;;5.90;50.50;;;6.47;44.34;98685.56;5043550;28;20369;-43
2022/04/17 04:13:50;;;;;;;5.50;4.43;;;5.90;50.70;;;6.47;43.92;98692.66;5043604;28;20247;-43
2022/04/17 04:16:18;;;;;;;4.63;4.10;;;5.90;50.80;;;6.45;43.40;98689.28;5042989;28;20247;-44
2022/04/17 04:18:46;;;;;;;4.67;3.20;;;5.80;50.90;;;6.42;43.50;98697.44;5043306;28;20049;-44
2022/04/17 04:21:14;;;;;;;5.20;3.70;;;5.80;51.00;;;6.40;43.25;98694.06;5043089;28;20060;-44
2022/04/17 04:23:41;;;;;;;6.80;4.20;;;5.80;51.00;;;6.35;43.40;98693.53;5042431;28;20251;-45
2022/04/17 04:26:09;;;;;;;4.20;3.40;;;5.70;51.10;;;6.28;44.60;98688.69;5043102;28;20053;-43
2022/04/17 04:28:37;;;;;;;5.20;3.60;;;5.60;51.70;;;6.18;43.93;98694.72;5043146;28;20041;-43
2022/04/17 04:31:09;;;;;;;4.13;3.37;;;5.40;52.10;;;6.10;44.34;98701.38;5042950;28;20358;-45
2022/04/17 04:33:40;;;;;;;4.37;3.27;;;5.30;52.40;;;6.07;44.08;98700.78;5042677;28;20048;-44
2022/04/17 04:36:11;;;;;;;5.10;3.60;;;5.30;52.20;;;6.02;44.38;98706.38;5042549;28;20041;-44
2022/04/17 04:38:39;;;;;;;5.53;4.40;;;5.30;52.20;;;5.98;44.25;98685.56;5042036;28;20049;-43
2022/04/17 04:41:07;;;;;;;6.10;4.07;;;5.30;52.70;;;5.94;44.79;98692.81;5043309;28;20060;-45
2022/04/17 04:43:35;;;;;;;4.43;3.23;;;5.20;53.00;;;5.90;44.73;98689.53;5042897;28;20049;-43
2022/04/17 04:46:06;;;;;;;7.73;3.77;;;5.20;52.70;;;5.87;44.53;98699.47;5042159;28;20049;-44
2022/04/17 04:51:30;;;;;;;4.23;3.80;;;4.90;53.50;;;5.72;45.35;98690.81;5042846;28;20105;-44
2022/04/17 04:53:57;;;;;;;5.57;3.90;;;4.90;53.90;;;5.70;45.31;98684.78;5042771;28;20276;-43
2022/04/17 04:56:26;;;;;;;4.37;3.80;;;5.00;53.40;;;5.73;44.78;98687.22;5043172;28;20361;-44
2022/04/17 04:58:53;;;;;;;5.10;3.93;;;5.00;53.20;;;5.78;44.56;98689.53;5042667;28;20064;-44
2022/04/17 05:01:21;;;;;;;7.67;4.20;;;5.20;52.90;;;5.82;45.33;98691.88;5042572;28;20045;-44
2022/04/17 05:03:49;;;;;;;4.93;3.80;;;5.30;52.70;;;5.88;45.17;98690.59;5043535;28;20049;-43
2022/04/17 05:06:18;;;;;;;5.40;4.33;;;5.30;52.60;;;5.90;45.79;98688.69;5042043;28;20045;-43
2022/04/17 05:08:45;;;;;;;5.13;3.17;;;5.40;52.50;;;5.91;44.75;98678.03;5042081;28;20056;-43
2022/04/17 05:11:13;;;;;;;8.17;4.20;;;5.40;52.50;;;5.92;44.74;98679.69;5042231;28;20404;-43
2022/04/17 05:13:41;;;;;;;6.87;4.30;;;5.40;52.40;;;5.95;45.12;98683.09;5042493;28;20045;-43
2022/04/17 05:16:10;;;;;;;6.70;5.53;;;5.40;52.70;;;5.99;44.99;98692.50;5041959;28;20045;-43
2022/04/17 05:18:38;;;;;;;7.13;5.17;;;5.50;52.60;;;6.04;44.91;98695.69;5042332;28;20056;-44
2022/04/17 05:21:06;;;;;;;6.10;5.30;;;5.60;52.40;;;6.10;45.57;98697.91;5042166;28;20049;-45
2022/04/17 05:23:36;;;;;;;6.20;4.93;;;5.70;52.20;;;6.13;44.88;98707.41;5042344;28;20051;-45
2022/04/17 05:26:05;;;;;;;5.63;4.53;;;5.70;52.00;;;6.07;45.26;98704.25;5041527;28;20045;-43
2022/04/17 05:28:33;;;;;;;5.80;4.20;;;5.50;52.40;;;6.07;44.54;98709.56;5042712;28;20045;-43
2022/04/17 05:31:01;;;;;;;4.40;3.80;;;5.50;52.60;;;6.06;44.74;98702.56;5042146;28;20041;-46
2022/04/17 05:33:29;;;;;;;6.97;3.50;;;5.50;52.80;;;6.09;45.84;98705.00;5040792;28;20102;-43
2022/04/17 05:35:57;;;;;;;6.10;3.83;;;5.60;52.70;;;6.10;45.45;98706.69;5042204;28;20386;-44
2022/04/17 05:38:24;;;;;;;5.60;3.60;;;5.60;52.70;;;6.11;45.08;98711.03;5042144;28;20055;-44
2022/04/17 05:40:53;;;;;;;4.07;3.43;;;5.60;52.90;;;6.15;45.48;98711.66;5042143;28;20051;-43
2022/04/17 05:43:22;;;;;;;5.47;4.30;;;5.60;52.90;;;6.17;45.90;98722.13;5041057;28;20059;-43
2022/04/17 05:45:50;;;;;;;5.13;4.13;;;5.70;53.00;;;6.20;45.32;98724.56;5042779;28;20248;-44
2022/04/17 05:48:18;;;;;;;4.77;3.90;;;5.70;52.90;;;6.22;45.61;98726.16;5044962;28;20049;-43
2022/04/17 05:50:46;;;;;;;6.43;4.63;;;5.80;53.10;;;6.25;45.31;98731.22;5045964;28;20045;-43
2022/04/17 05:53:14;;;;;;;4.43;3.53;;;5.80;53.00;;;6.28;45.41;98730.13;5046201;28;20033;-49
2022/04/17 05:55:42;;;;;;;5.47;3.97;;;5.80;53.20;;;6.31;45.64;98738.72;5045812;28;20049;-44
2022/04/17 05:58:10;;;;;;;4.03;3.20;;;5.80;53.10;;;6.33;45.24;98725.38;5046074;28;20055;-44
2022/04/17 06:00:42;;;;;;;6.57;3.90;;;5.80;53.30;;;6.36;45.89;98730.47;5046066;28;20046;-46
2022/04/17 06:03:10;;;;;;;5.13;3.53;;;5.90;53.20;;;6.37;45.58;98716.28;5046310;28;20077;-45
2022/04/17 06:05:38;;;;;;;4.57;3.37;;;5.90;53.20;;;6.39;46.17;98718.81;5045570;28;20055;-43
2022/04/17 06:08:06;;;;;;;5.63;3.80;;;5.90;53.20;;;6.35;46.25;98715.53;5044573;28;20085;-45
2022/04/17 06:10:34;;;;;;;5.20;3.43;;;6.00;52.80;;;6.42;45.75;98718.63;5045851;28;20041;-45
2022/04/17 06:13:02;;;;;;;4.80;3.07;;;6.10;52.90;;;6.47;45.64;98700.59;5044855;28;20343;-44
2022/04/17 06:15:30;;;;;;;4.37;3.50;;;6.10;53.00;;;6.52;46.38;98711.72;5045374;28;20045;-43
2022/04/17 06:17:58;;;;;;;4.03;3.20;;;6.20;53.00;;;6.57;46.37;98714.00;5045564;28;20140;-43
2022/04/17 06:20:26;;;;;;;4.17;3.70;;;6.20;53.00;;;6.61;45.83;98707.53;5045706;28;20362;-45
2022/04/17 06:22:54;;;;;;;5.33;4.30;;;6.20;53.10;;;6.63;46.31;98719.72;5044377;28;20045;-43
2022/04/17 06:25:21;;;;;;;5.17;3.67;;;6.20;53.40;;;6.67;46.58;98717.72;5044008;28;20051;-44
2022/04/17 06:27:49;;;;;;;4.13;3.50;;;6.30;53.50;;;6.70;46.17;98707.72;5045168;28;20050;-44
2022/04/17 06:30:19;;;;;;;4.50;3.80;;;6.30;54.00;;;6.75;46.01;98707.41;5045666;28;20056;-45
2022/04/17 06:32:49;;;;;;;4.13;3.60;;;6.40;53.50;;;6.80;46.71;98707.91;5044016;28;20221;-43
2022/04/17 06:35:17;;;;;;;4.10;2.60;;;6.50;52.90;;;6.87;45.85;98695.91;5045141;28;20180;-44
2022/04/17 06:37:52;;;;;;;4.23;3.30;;;6.50;52.70;;;6.94;46.57;98701.63;5045111;28;20370;-45
2022/04/17 06:40:26;;;;;;;5.23;2.97;;;6.70;52.90;;;6.98;46.50;98703.09;5045248;28;20046;-45
2022/04/17 06:42:57;;;;;;;4.78;3.47;;;6.80;53.10;;;7.06;45.59;98699.88;5045112;28;20059;-45
2022/04/17 06:45:25;;;;;;;5.53;3.10;;;6.90;52.10;;;7.16;46.22;98698.22;5028074;28;20062;-45
2022/04/17 06:47:56;;;;;;;4.73;3.20;;;7.00;51.70;;;7.23;45.88;98688.88;5043958;28;20056;-45
2022/04/17 06:50:24;;;;;;;4.63;2.93;;;7.00;51.50;;;7.28;45.48;98693.81;5043816;28;20053;-44
2022/04/17 06:52:52;;;;;;;4.70;3.07;;;7.10;51.20;;;7.32;45.69;98695.28;5045135;28;20077;-45
2022/04/17 06:55:20;;;;;;;3.70;2.93;;;7.20;51.00;;;7.39;45.74;98695.69;5044752;28;20047;-44
2022/04/17 06:57:50;;;;;;;4.20;2.77;;;7.20;50.90;;;7.43;45.24;98687.38;5045152;28;20041;-44
2022/04/17 07:00:21;;;;;;;3.53;2.80;;;7.30;50.90;;;7.46;45.34;98688.94;5044990;28;20072;-45
2022/04/17 07:02:49;;;;;;;4.67;3.30;;;7.30;50.30;;;7.51;45.12;98686.78;5043784;28;20049;-44
2022/04/17 07:05:17;;;;;;;5.37;2.53;;;7.40;50.10;;;7.55;45.33;98690.06;5044743;28;20049;-45
2022/04/17 07:07:45;;;;;;;5.53;3.17;;;7.50;50.10;;;7.59;44.92;98686.22;5044654;28;20283;-45
2022/04/17 07:10:13;;;;;;;4.63;3.50;;;7.60;49.70;;;7.66;44.90;98680.31;5043728;28;20045;-46
2022/04/17 07:12:44;;;;;;;5.13;2.83;;;7.60;49.90;;;7.72;44.68;98678.19;5045015;28;20054;-44
2022/04/17 07:15:12;;;;;;;4.30;2.90;;;7.60;49.80;;;7.75;44.69;98676.09;5043554;28;20049;-45
2022/04/17 07:17:41;;;;;;;5.57;3.10;;;7.70;49.50;;;7.79;44.34;98674.06;5044070;28;20049;-45
2022/04/17 07:20:10;;;;;;;3.87;3.30;;;7.80;48.90;;;7.86;44.37;98676.13;5043790;28;20049;-44
2022/04/17 07:22:41;;;;;;;4.43;3.10;;;7.80;48.90;;;7.94;44.26;98680.00;5043638;28;20063;-45
2022/04/17 07:25:11;;;;;;;3.77;2.90;;;7.90;48.70;;;8.00;44.22;98676.88;5044277;28;20255;-44
2022/04/17 07:27:47;;;;;;;4.20;2.87;;;7.90;48.80;;;8.06;44.11;98673.72;5044786;28;20064;-48
2022/04/17 07:30:20;;;;;;;5.33;3.37;;;7.90;48.70;;;8.12;43.95;98670.59;5044450;28;20063;-46
2022/04/17 07:32:51;;;;;;;3.65;2.67;;;8.00;48.40;;;8.16;43.59;98668.53;5044176;28;20366;-45
2022/04/17 07:35:21;;;;;;;5.33;3.00;;;8.10;48.30;;;8.24;43.81;98671.47;5043099;28;20147;-46
2022/04/17 07:38:04;;;;;;;3.53;2.67;;;8.10;48.20;;;8.27;43.29;98661.41;5044000;28;20053;-46
2022/04/17 07:40:34;;;;;;;4.10;2.43;;;8.20;47.80;;;8.35;43.03;98666.13;5043152;28;20041;-44
2022/04/17 07:43:06;;;;;;;4.43;2.70;;;8.30;47.50;;;8.39;42.51;98658.75;5044150;28;20348;-43
2022/04/17 07:45:34;;;;;;;4.73;2.50;;;8.30;46.60;;;8.43;42.28;98661.09;5044012;28;20251;-45
2022/04/17 07:48:02;;;;;;;6.47;3.73;;;8.30;46.10;;;8.48;42.43;98658.91;5041661;28;20052;-45
2022/04/17 07:50:31;;;;;;;4.23;3.43;;;8.40;46.20;;;8.54;42.68;98664.69;5042801;28;20053;-44
2022/04/17 07:53:00;;;;;;;3.87;2.53;;;8.50;46.30;;;8.60;42.40;98658.88;5043973;28;20047;-45
2022/04/17 07:55:28;;;;;;;6.67;4.90;;;8.50;46.20;;;8.64;42.32;98669.13;5043418;28;20055;-46
2022/04/17 08:00:27;;;;;;;4.40;3.50;;;8.60;45.80;;;8.72;41.85;98660.53;5043842;28;20049;-46
2022/04/17 08:03:24;;;;;;;2.83;2.33;;;8.70;45.50;;;8.70;41.54;98654.50;5043796;28;20063;-43
2022/04/17 08:05:53;;;;;;;5.32;2.90;;;8.60;45.00;;;8.74;40.98;98661.25;5042460;28;20307;-43
2022/04/17 08:08:21;;;;;;;3.03;2.40;;;8.70;44.80;;;8.76;40.70;98643.41;5042754;28;20045;-45
2022/04/17 08:10:49;;;;;;;4.63;2.90;;;8.80;44.40;;;8.80;41.42;98647.50;5043423;28;20243;-47
2022/04/17 08:13:17;;;;;;;3.47;3.07;;;8.80;44.80;;;8.79;39.95;98645.81;5042769;28;20120;-43
2022/04/17 08:15:45;;;;;;;4.03;2.50;;;8.80;42.90;;;8.87;41.01;98653.97;5043586;28;20344;-45
2022/04/17 08:18:13;;;;;;;6.70;3.20;;;8.90;44.00;;;8.95;40.95;98642.72;5058690;28;20041;-47
2022/04/17 08:20:41;;;;;;;5.63;2.73;;;8.90;44.40;;;9.01;40.92;98641.38;5043393;28;20045;-47
2022/04/17 08:23:09;;;;;;;4.90;3.10;;;9.00;44.20;;;9.05;41.02;98648.97;5043242;28;20045;-47
2022/04/17 08:25:37;;;;;;;3.27;2.97;;;9.00;44.10;;;9.13;41.15;98634.19;5043412;28;20061;-47
2022/04/17 08:28:05;;;;;;;3.70;2.93;;;9.10;44.60;;;9.20;40.97;98640.69;5043032;28;20079;-46
2022/04/17 08:30:34;;;;;;;4.43;3.10;;;9.20;44.10;;;9.25;40.71;98639.34;5043127;28;20046;-49
2022/04/17 08:33:06;;;;;;;4.10;2.60;;;9.30;44.20;;;9.32;40.52;98630.84;5043065;28;20047;-44
2022/04/17 08:35:35;;;;;;;2.80;2.50;;;9.30;43.50;;;9.34;40.25;98620.94;5042891;28;20049;-47
2022/04/17 08:38:04;;;;;;;4.60;2.40;;;9.40;43.10;;;9.36;39.23;98630.44;5042962;28;20071;-45
2022/04/17 08:40:32;;;;;;;3.43;2.30;;;9.40;42.20;;;9.37;39.83;98620.69;5042558;28;20369;-45
2022/04/17 08:43:00;;;;;;;5.40;2.63;;;9.40;42.40;;;9.50;40.18;98620.47;5042946;28;20053;-45
2022/04/17 08:45:28;;;;;;;3.87;2.77;;;9.50;42.70;;;9.55;40.08;98613.78;5042612;28;20339;-46
2022/04/17 08:47:56;;;;;;;4.13;2.60;;;9.60;42.30;;;9.61;40.02;98618.56;5042014;28;20055;-49
2022/04/17 08:50:24;;;;;;;4.83;2.27;;;9.60;42.70;;;9.66;39.34;98611.06;5042861;28;20229;-45
2022/04/17 08:52:55;;;;;;;2.87;2.20;;;9.70;42.00;;;9.70;39.37;98605.50;5042804;28;20243;-46
2022/04/17 08:55:23;;;;;;;2.90;2.00;;;9.80;41.60;;;9.74;38.01;98606.91;5041008;28;20071;-49
2022/04/17 08:57:51;;;;;;;2.93;2.33;;;9.80;41.00;;;9.80;38.90;98595.72;5042679;28;20055;-47
2022/04/17 09:00:21;;;;;;;3.40;1.87;;;9.80;41.00;;;9.80;38.26;98585.09;5042584;28;20049;-45
2022/04/17 09:02:50;;;;;;;3.77;2.00;;;9.80;40.50;;;9.91;38.83;98587.66;5043144;28;20047;-44
2022/04/17 09:05:20;;;;;;;3.53;2.77;;;9.90;41.60;;;9.96;38.68;98585.44;5041493;28;20240;-44
2022/04/17 09:07:53;;;;;;;4.10;2.20;;;10.00;41.10;;;9.99;38.14;98574.53;5042433;28;20067;-47
2022/04/17 09:10:30;;;;;;;3.00;2.03;;;10.10;40.20;;;10.08;38.33;98572.03;5042534;28;20038;-46
2022/04/17 09:13:01;;;;;;;3.27;2.03;;;10.10;40.00;;;10.12;38.17;98573.44;5042410;28;20053;-44
2022/04/17 09:15:35;;;;;;;3.23;2.00;;;10.20;40.20;;;10.17;38.35;98565.91;5041945;28;20384;-44
2022/04/17 09:18:08;;;;;;;3.53;2.60;;;10.20;40.20;;;10.21;37.63;98560.16;5042432;28;20045;-45
2022/04/17 09:20:47;;;;;;;5.40;3.17;;;10.30;40.30;;;10.29;37.76;98555.97;5043007;28;20053;-46
2022/04/17 09:23:32;;;;;;;4.27;2.40;;;10.30;39.10;;;10.34;37.50;98546.63;5041968;28;20083;-44
2022/04/17 09:26:00;;;;;;;7.57;3.93;;;10.40;39.40;;;10.39;37.52;98547.06;5040817;28;20236;-48
2022/04/17 09:28:37;;;;;;;4.87;2.80;;;10.40;39.30;;;10.47;37.61;98548.19;5042211;28;20059;-47
2022/04/17 09:31:12;;;;;;;3.27;2.33;;;10.50;38.90;;;10.52;37.02;98553.94;5042170;28;20045;-46
2022/04/17 09:33:42;;;;;;;12.53;7.60;;;10.60;38.70;;;10.48;34.33;98542.72;5042468;28;20052;-46
2022/04/17 09:36:12;;;;;;;7.63;4.03;;;10.60;36.60;;;10.56;36.41;98545.53;5040621;28;20046;-48
2022/04/17 09:38:43;;;;;;;3.90;2.93;;;10.70;38.00;;;10.62;36.34;98539.69;5042104;28;20111;-44
2022/04/17 09:41:15;;;;;;;3.73;2.50;;;10.70;38.40;;;10.68;36.62;98548.91;5042541;28;20060;-47
2022/04/17 09:43:47;;;;;;;3.97;2.13;;;10.80;38.30;;;10.76;36.36;98542.88;5041887;28;20053;-44
2022/04/17 09:46:15;;;;;;;3.23;2.23;;;10.80;38.40;;;10.79;36.54;98538.13;5041094;28;20045;-44
2022/04/17 09:48:44;;;;;;;4.17;1.77;;;10.80;37.70;;;10.83;36.01;98541.34;5042157;28;20056;-44
2022/04/17 09:51:26;;;;;;;3.27;2.10;;;10.90;37.10;;;10.89;35.54;98539.94;5041946;28;20038;-44
2022/04/17 09:54:07;;;;;;;2.97;2.03;;;11.00;36.60;;;10.90;34.31;98533.66;5042026;28;20041;-45
2022/04/17 09:56:41;;;;;;;3.27;2.20;;;11.00;36.00;;;10.98;36.09;98533.75;5041350;28;20050;-46
2022/04/17 09:59:23;;;;;;;2.42;2.05;;;11.10;37.80;;;11.01;35.20;98529.00;5041957;28;20051;-44
2022/04/17 10:01:54;;;;;;;2.33;2.00;;;11.10;35.90;;;11.08;35.59;98529.25;5041975;28;20397;-46
2022/04/17 10:04:25;;;;;;;2.70;1.70;;;11.10;37.30;;;11.12;35.23;98527.97;5041940;28;20057;-43
2022/04/17 10:06:59;;;;;;;2.93;1.83;;;11.20;37.10;;;11.18;35.30;98523.91;5041996;28;20347;-45
2022/04/17 10:09:27;;;;;;;;;;;11.30;36.70;;;11.19;34.02;98522.94;5041381;28;20084;-43
2022/04/17 10:11:56;;;;;;;2.40;2.00;;;11.30;34.90;;;11.30;35.78;98522.78;5041861;28;19917;-46
2022/04/17 10:14:28;;;;;;;3.20;2.10;;;11.30;37.70;;;11.36;36.13;98526.66;5042654;28;20079;-47
2022/04/17 10:16:57;;;;;;;2.57;1.73;;;11.40;37.60;;;11.38;35.27;98514.88;5040442;28;20051;-44
2022/04/17 10:19:27;;;;;;;3.10;1.70;;;11.50;37.30;;;11.43;34.69;98507.28;5040627;28;20049;-42
2022/04/17 10:22:00;;;;;;;2.43;1.87;;;11.50;36.70;;;11.50;34.64;98502.22;5040779;28;20050;-44
2022/04/17 10:24:28;;;;;;;2.77;1.63;;;11.60;36.30;;;11.59;36.06;98505.81;5042200;28;20053;-44
2022/04/17 10:26:59;;;;;;;3.40;2.42;;;11.70;37.70;;;11.61;34.17;98498.50;5041668;28;20053;-43
2022/04/17 10:29:54;;;;;;;3.88;1.80;;;11.70;36.20;;;11.66;34.63;98509.59;5040695;28;20055;-43
2022/04/17 10:32:46;;;;;;;3.25;2.25;;;11.80;35.00;;;11.73;34.98;98505.34;5041729;28;20060;-43
2022/04/17 10:35:45;;;;;;;2.58;1.80;;;11.80;36.40;;;11.75;34.54;98498.03;5045419;28;20044;-44
2022/04/17 10:38:37;;;;;;;2.83;1.70;;;11.90;34.70;;;11.81;33.65;98494.78;5045961;28;20053;-43
2022/04/17 10:41:08;;;;;;;2.58;1.67;;;11.90;35.40;;;11.81;32.90;98486.78;5045690;28;20060;-43
2022/04/17 10:43:48;;;;;;;2.45;1.73;;;11.90;34.80;;;11.88;34.20;98488.84;5045223;28;20055;-43
2022/04/17 10:46:21;;;;;;;3.10;1.88;;;12.00;34.40;;;11.93;34.43;98481.28;5044196;28;20046;-43
2022/04/17 10:49:05;;;;;;;3.53;1.90;;;12.00;35.40;;;11.97;34.23;98480.81;5045241;28;20053;-43
2022/04/17 10:51:36;;;;;;;3.60;2.03;;;12.00;35.80;;;12.04;34.78;98480.19;5044965;28;20343;-43
2022/04/17 10:54:13;;;;;;;1.97;1.50;;;12.10;35.90;;;12.08;34.31;98479.78;5045221;28;20255;-43
2022/04/17 10:57:00;;;;;;;2.17;1.70;;;12.20;35.40;;;12.13;33.12;98477.47;5043326;28;20051;-44